sensor_id;sensor_type;location;lat;lon;timestamp;P1;durP1;ratioP1;P2;durP2;ratioP2
57025;SDS011;43961;52.940;6.834;2024-03-25T00:02:13;44.08;;;11.35;;
57025;SDS011;43961;52.940;6.834;2024-03-25T00:04:39;39.55;;;10.23;;
57025;SDS011;43961;52.940;6.834;2024-03-25T00:07:04;27.60;;;10.00;;
57025;SDS011;43961;52.940;6.834;2024-03-25T00:09:30;45.72;;;10.60;;
57025;SDS011;43961;52.940;6.834;2024-03-25T00:11:56;34.50;;;9.38;;
57025;SDS011;43961;52.940;6.834;2024-03-25T00:14:22;26.42;;;7.78;;
57025;SDS011;43961;52.940;6.834;2024-03-25T00:16:48;35.95;;;9.60;;
57025;SDS011;43961;52.940;6.834;2024-03-25T00:19:15;42.72;;;10.68;;
57025;SDS011;43961;52.940;6.834;2024-03-25T00:21:41;48.75;;;10.25;;
57025;SDS011;43961;52.940;6.834;2024-03-25T00:24:07;23.88;;;8.10;;
57025;SDS011;43961;52.940;6.834;2024-03-25T00:26:33;34.22;;;8.82;;
57025;SDS011;43961;52.940;6.834;2024-03-25T00:28:59;34.33;;;9.35;;
57025;SDS011;43961;52.940;6.834;2024-03-25T00:31:24;42.50;;;9.38;;
57025;SDS011;43961;52.940;6.834;2024-03-25T00:33:50;31.00;;;8.98;;
57025;SDS011;43961;52.940;6.834;2024-03-25T00:36:16;24.63;;;9.25;;
57025;SDS011;43961;52.940;6.834;2024-03-25T00:38:42;34.97;;;9.02;;
57025;SDS011;43961;52.940;6.834;2024-03-25T00:41:08;32.95;;;8.15;;
57025;SDS011;43961;52.940;6.834;2024-03-25T00:43:34;26.83;;;8.77;;
57025;SDS011;43961;52.940;6.834;2024-03-25T00:46:00;39.45;;;9.82;;
57025;SDS011;43961;52.940;6.834;2024-03-25T00:48:25;35.80;;;9.27;;
57025;SDS011;43961;52.940;6.834;2024-03-25T00:50:51;32.17;;;8.02;;
57025;SDS011;43961;52.940;6.834;2024-03-25T00:53:17;33.25;;;8.43;;
57025;SDS011;43961;52.940;6.834;2024-03-25T00:55:43;37.92;;;9.75;;
57025;SDS011;43961;52.940;6.834;2024-03-25T00:58:09;33.58;;;8.60;;
57025;SDS011;43961;52.940;6.834;2024-03-25T01:00:35;28.60;;;8.65;;
57025;SDS011;43961;52.940;6.834;2024-03-25T01:03:00;33.08;;;9.30;;
57025;SDS011;43961;52.940;6.834;2024-03-25T01:05:26;27.92;;;9.02;;
57025;SDS011;43961;52.940;6.834;2024-03-25T01:07:52;33.55;;;8.57;;
57025;SDS011;43961;52.940;6.834;2024-03-25T01:10:18;39.92;;;9.38;;
57025;SDS011;43961;52.940;6.834;2024-03-25T01:12:44;37.20;;;8.82;;
57025;SDS011;43961;52.940;6.834;2024-03-25T01:15:10;32.40;;;8.55;;
57025;SDS011;43961;52.940;6.834;2024-03-25T01:17:37;32.53;;;9.00;;
57025;SDS011;43961;52.940;6.834;2024-03-25T01:20:03;30.58;;;9.20;;
57025;SDS011;43961;52.940;6.834;2024-03-25T01:22:31;31.38;;;9.57;;
57025;SDS011;43961;52.940;6.834;2024-03-25T01:24:59;28.10;;;8.30;;
57025;SDS011;43961;52.940;6.834;2024-03-25T01:27:25;28.83;;;9.82;;
57025;SDS011;43961;52.940;6.834;2024-03-25T01:29:50;32.35;;;9.35;;
57025;SDS011;43961;52.940;6.834;2024-03-25T01:32:16;46.85;;;10.23;;
57025;SDS011;43961;52.940;6.834;2024-03-25T01:34:41;30.92;;;9.75;;
57025;SDS011;43961;52.940;6.834;2024-03-25T01:37:07;37.80;;;10.68;;
57025;SDS011;43961;52.940;6.834;2024-03-25T01:39:33;34.42;;;9.98;;
57025;SDS011;43961;52.940;6.834;2024-03-25T01:41:58;36.80;;;9.32;;
57025;SDS011;43961;52.940;6.834;2024-03-25T01:44:24;35.05;;;9.13;;
57025;SDS011;43961;52.940;6.834;2024-03-25T01:46:49;32.70;;;8.90;;
57025;SDS011;43961;52.940;6.834;2024-03-25T01:49:17;30.87;;;9.60;;
57025;SDS011;43961;52.940;6.834;2024-03-25T01:51:44;28.80;;;9.15;;
57025;SDS011;43961;52.940;6.834;2024-03-25T01:54:11;26.13;;;9.13;;
57025;SDS011;43961;52.940;6.834;2024-03-25T01:56:39;37.97;;;9.80;;
57025;SDS011;43961;52.940;6.834;2024-03-25T01:59:07;43.13;;;9.43;;
57025;SDS011;43961;52.940;6.834;2024-03-25T02:01:32;30.10;;;9.57;;
57025;SDS011;43961;52.940;6.834;2024-03-25T02:03:58;23.98;;;7.90;;
57025;SDS011;43961;52.940;6.834;2024-03-25T02:06:26;27.70;;;9.30;;
57025;SDS011;43961;52.940;6.834;2024-03-25T02:08:52;43.78;;;10.40;;
57025;SDS011;43961;52.940;6.834;2024-03-25T02:11:20;26.63;;;9.13;;
57025;SDS011;43961;52.940;6.834;2024-03-25T02:13:47;36.17;;;10.30;;
57025;SDS011;43961;52.940;6.834;2024-03-25T02:16:13;38.05;;;9.68;;
57025;SDS011;43961;52.940;6.834;2024-03-25T02:18:39;39.90;;;11.18;;
57025;SDS011;43961;52.940;6.834;2024-03-25T02:21:04;40.65;;;11.13;;
57025;SDS011;43961;52.940;6.834;2024-03-25T02:23:30;36.88;;;9.98;;
57025;SDS011;43961;52.940;6.834;2024-03-25T02:25:57;42.58;;;10.02;;
57025;SDS011;43961;52.940;6.834;2024-03-25T02:28:22;29.55;;;8.85;;
57025;SDS011;43961;52.940;6.834;2024-03-25T02:30:48;29.42;;;9.57;;
57025;SDS011;43961;52.940;6.834;2024-03-25T02:33:14;33.70;;;10.68;;
57025;SDS011;43961;52.940;6.834;2024-03-25T02:35:41;32.60;;;9.43;;
57025;SDS011;43961;52.940;6.834;2024-03-25T02:38:08;30.95;;;9.73;;
57025;SDS011;43961;52.940;6.834;2024-03-25T02:40:35;30.48;;;9.75;;
57025;SDS011;43961;52.940;6.834;2024-03-25T02:43:01;48.92;;;11.05;;
57025;SDS011;43961;52.940;6.834;2024-03-25T02:45:27;28.15;;;9.88;;
57025;SDS011;43961;52.940;6.834;2024-03-25T02:47:53;43.65;;;11.07;;
57025;SDS011;43961;52.940;6.834;2024-03-25T02:50:19;33.35;;;10.73;;
57025;SDS011;43961;52.940;6.834;2024-03-25T02:52:44;39.50;;;9.90;;
57025;SDS011;43961;52.940;6.834;2024-03-25T02:55:10;48.30;;;12.32;;
57025;SDS011;43961;52.940;6.834;2024-03-25T02:57:35;38.00;;;10.18;;
57025;SDS011;43961;52.940;6.834;2024-03-25T03:00:01;31.63;;;9.20;;
57025;SDS011;43961;52.940;6.834;2024-03-25T03:02:27;40.85;;;10.00;;
57025;SDS011;43961;52.940;6.834;2024-03-25T03:04:52;50.42;;;9.70;;
57025;SDS011;43961;52.940;6.834;2024-03-25T03:07:18;39.58;;;10.35;;
57025;SDS011;43961;52.940;6.834;2024-03-25T03:09:44;40.95;;;9.73;;
57025;SDS011;43961;52.940;6.834;2024-03-25T03:12:09;30.88;;;9.77;;
57025;SDS011;43961;52.940;6.834;2024-03-25T03:14:35;39.83;;;9.60;;
57025;SDS011;43961;52.940;6.834;2024-03-25T03:17:00;36.83;;;10.38;;
57025;SDS011;43961;52.940;6.834;2024-03-25T03:19:29;32.55;;;9.07;;
57025;SDS011;43961;52.940;6.834;2024-03-25T03:21:56;53.60;;;11.57;;
57025;SDS011;43961;52.940;6.834;2024-03-25T03:24:21;51.33;;;11.80;;
57025;SDS011;43961;52.940;6.834;2024-03-25T03:26:48;39.22;;;10.80;;
57025;SDS011;43961;52.940;6.834;2024-03-25T03:29:13;32.10;;;8.73;;
57025;SDS011;43961;52.940;6.834;2024-03-25T03:31:39;33.30;;;9.43;;
57025;SDS011;43961;52.940;6.834;2024-03-25T03:34:05;43.05;;;10.65;;
57025;SDS011;43961;52.940;6.834;2024-03-25T03:36:30;38.80;;;10.15;;
57025;SDS011;43961;52.940;6.834;2024-03-25T03:38:56;28.50;;;9.82;;
57025;SDS011;43961;52.940;6.834;2024-03-25T03:41:22;30.73;;;8.93;;
57025;SDS011;43961;52.940;6.834;2024-03-25T03:43:47;33.47;;;8.93;;
57025;SDS011;43961;52.940;6.834;2024-03-25T03:46:13;28.00;;;8.55;;
57025;SDS011;43961;52.940;6.834;2024-03-25T03:48:38;32.28;;;9.85;;
57025;SDS011;43961;52.940;6.834;2024-03-25T03:51:04;39.65;;;9.75;;
57025;SDS011;43961;52.940;6.834;2024-03-25T03:53:31;40.05;;;9.75;;
57025;SDS011;43961;52.940;6.834;2024-03-25T03:56:01;29.83;;;9.88;;
57025;SDS011;43961;52.940;6.834;2024-03-25T03:58:29;36.60;;;9.70;;
57025;SDS011;43961;52.940;6.834;2024-03-25T04:00:55;40.45;;;9.63;;
57025;SDS011;43961;52.940;6.834;2024-03-25T04:03:20;39.85;;;9.38;;
57025;SDS011;43961;52.940;6.834;2024-03-25T04:05:46;38.58;;;9.35;;
57025;SDS011;43961;52.940;6.834;2024-03-25T04:08:12;34.85;;;10.40;;
57025;SDS011;43961;52.940;6.834;2024-03-25T04:10:38;37.92;;;10.02;;
57025;SDS011;43961;52.940;6.834;2024-03-25T04:13:04;26.63;;;7.88;;
57025;SDS011;43961;52.940;6.834;2024-03-25T04:15:36;43.15;;;9.60;;
57025;SDS011;43961;52.940;6.834;2024-03-25T04:18:03;37.17;;;9.77;;
57025;SDS011;43961;52.940;6.834;2024-03-25T04:20:29;48.15;;;9.05;;
57025;SDS011;43961;52.940;6.834;2024-03-25T04:23:01;50.88;;;10.52;;
57025;SDS011;43961;52.940;6.834;2024-03-25T04:25:26;45.75;;;9.02;;
57025;SDS011;43961;52.940;6.834;2024-03-25T04:27:52;39.58;;;9.98;;
57025;SDS011;43961;52.940;6.834;2024-03-25T04:30:17;37.85;;;10.55;;
57025;SDS011;43961;52.940;6.834;2024-03-25T04:32:43;39.38;;;10.55;;
57025;SDS011;43961;52.940;6.834;2024-03-25T04:35:09;37.53;;;9.50;;
57025;SDS011;43961;52.940;6.834;2024-03-25T04:37:35;37.50;;;10.38;;
57025;SDS011;43961;52.940;6.834;2024-03-25T04:40:01;53.00;;;11.13;;
57025;SDS011;43961;52.940;6.834;2024-03-25T04:42:28;38.47;;;9.77;;
57025;SDS011;43961;52.940;6.834;2024-03-25T04:44:53;38.00;;;9.75;;
57025;SDS011;43961;52.940;6.834;2024-03-25T04:47:19;37.65;;;9.82;;
57025;SDS011;43961;52.940;6.834;2024-03-25T04:49:45;35.38;;;9.05;;
57025;SDS011;43961;52.940;6.834;2024-03-25T04:52:11;37.28;;;10.70;;
57025;SDS011;43961;52.940;6.834;2024-03-25T04:54:38;40.17;;;10.55;;
57025;SDS011;43961;52.940;6.834;2024-03-25T04:57:05;43.83;;;9.88;;
57025;SDS011;43961;52.940;6.834;2024-03-25T04:59:31;31.00;;;7.75;;
57025;SDS011;43961;52.940;6.834;2024-03-25T05:01:57;34.55;;;9.35;;
57025;SDS011;43961;52.940;6.834;2024-03-25T05:04:23;33.58;;;10.98;;
57025;SDS011;43961;52.940;6.834;2024-03-25T05:06:49;34.75;;;8.68;;
57025;SDS011;43961;52.940;6.834;2024-03-25T05:09:15;40.63;;;10.13;;
57025;SDS011;43961;52.940;6.834;2024-03-25T05:11:41;34.08;;;9.10;;
57025;SDS011;43961;52.940;6.834;2024-03-25T05:14:07;45.70;;;9.05;;
57025;SDS011;43961;52.940;6.834;2024-03-25T05:16:33;49.25;;;9.85;;
57025;SDS011;43961;52.940;6.834;2024-03-25T05:18:58;25.10;;;8.82;;
57025;SDS011;43961;52.940;6.834;2024-03-25T05:21:24;21.73;;;7.68;;
57025;SDS011;43961;52.940;6.834;2024-03-25T05:23:49;34.45;;;9.48;;
57025;SDS011;43961;52.940;6.834;2024-03-25T05:26:15;34.47;;;8.80;;
57025;SDS011;43961;52.940;6.834;2024-03-25T05:28:40;27.40;;;7.93;;
57025;SDS011;43961;52.940;6.834;2024-03-25T05:31:09;22.23;;;7.25;;
57025;SDS011;43961;52.940;6.834;2024-03-25T05:33:37;30.40;;;7.80;;
57025;SDS011;43961;52.940;6.834;2024-03-25T05:36:03;35.67;;;7.85;;
57025;SDS011;43961;52.940;6.834;2024-03-25T05:38:30;21.35;;;7.65;;
57025;SDS011;43961;52.940;6.834;2024-03-25T05:40:56;36.22;;;8.80;;
57025;SDS011;43961;52.940;6.834;2024-03-25T05:43:22;34.63;;;8.57;;
57025;SDS011;43961;52.940;6.834;2024-03-25T05:45:53;24.42;;;7.72;;
57025;SDS011;43961;52.940;6.834;2024-03-25T05:48:20;25.25;;;7.30;;
57025;SDS011;43961;52.940;6.834;2024-03-25T05:50:46;37.65;;;9.35;;
57025;SDS011;43961;52.940;6.834;2024-03-25T05:53:11;33.22;;;8.30;;
57025;SDS011;43961;52.940;6.834;2024-03-25T05:55:37;24.98;;;7.88;;
57025;SDS011;43961;52.940;6.834;2024-03-25T05:58:03;31.25;;;8.68;;
57025;SDS011;43961;52.940;6.834;2024-03-25T06:00:30;36.30;;;9.35;;
57025;SDS011;43961;52.940;6.834;2024-03-25T06:02:56;31.08;;;7.70;;
57025;SDS011;43961;52.940;6.834;2024-03-25T06:05:22;36.50;;;8.57;;
57025;SDS011;43961;52.940;6.834;2024-03-25T06:07:47;40.63;;;9.68;;
57025;SDS011;43961;52.940;6.834;2024-03-25T06:10:13;36.85;;;8.90;;
57025;SDS011;43961;52.940;6.834;2024-03-25T06:12:39;33.83;;;9.98;;
57025;SDS011;43961;52.940;6.834;2024-03-25T06:15:05;46.30;;;10.02;;
57025;SDS011;43961;52.940;6.834;2024-03-25T06:17:32;36.92;;;10.10;;
57025;SDS011;43961;52.940;6.834;2024-03-25T06:19:57;42.92;;;9.57;;
57025;SDS011;43961;52.940;6.834;2024-03-25T06:22:23;45.17;;;11.02;;
57025;SDS011;43961;52.940;6.834;2024-03-25T06:24:48;42.28;;;10.82;;
57025;SDS011;43961;52.940;6.834;2024-03-25T06:27:15;37.38;;;10.77;;
57025;SDS011;43961;52.940;6.834;2024-03-25T06:29:41;44.38;;;10.30;;
57025;SDS011;43961;52.940;6.834;2024-03-25T06:32:08;44.35;;;9.77;;
57025;SDS011;43961;52.940;6.834;2024-03-25T06:34:53;37.92;;;12.45;;
57025;SDS011;43961;52.940;6.834;2024-03-25T06:37:19;35.17;;;10.25;;
57025;SDS011;43961;52.940;6.834;2024-03-25T06:39:45;27.58;;;11.02;;
57025;SDS011;43961;52.940;6.834;2024-03-25T06:42:10;37.10;;;9.88;;
57025;SDS011;43961;52.940;6.834;2024-03-25T06:44:36;35.35;;;9.18;;
57025;SDS011;43961;52.940;6.834;2024-03-25T06:47:01;40.90;;;10.93;;
57025;SDS011;43961;52.940;6.834;2024-03-25T06:49:27;43.65;;;10.45;;
57025;SDS011;43961;52.940;6.834;2024-03-25T06:51:53;37.10;;;10.32;;
57025;SDS011;43961;52.940;6.834;2024-03-25T06:54:19;42.10;;;10.85;;
57025;SDS011;43961;52.940;6.834;2024-03-25T06:56:45;43.85;;;10.18;;
57025;SDS011;43961;52.940;6.834;2024-03-25T06:59:10;32.40;;;9.63;;
57025;SDS011;43961;52.940;6.834;2024-03-25T07:01:36;48.50;;;9.75;;
57025;SDS011;43961;52.940;6.834;2024-03-25T07:04:02;60.25;;;11.35;;
57025;SDS011;43961;52.940;6.834;2024-03-25T07:06:28;38.47;;;9.95;;
57025;SDS011;43961;52.940;6.834;2024-03-25T07:08:53;47.58;;;10.25;;
57025;SDS011;43961;52.940;6.834;2024-03-25T07:11:20;40.15;;;10.38;;
57025;SDS011;43961;52.940;6.834;2024-03-25T07:13:46;46.20;;;10.57;;
57025;SDS011;43961;52.940;6.834;2024-03-25T07:16:12;42.75;;;10.50;;
57025;SDS011;43961;52.940;6.834;2024-03-25T07:18:37;48.20;;;11.93;;
57025;SDS011;43961;52.940;6.834;2024-03-25T07:21:03;49.25;;;11.98;;
57025;SDS011;43961;52.940;6.834;2024-03-25T07:23:29;39.75;;;9.55;;
57025;SDS011;43961;52.940;6.834;2024-03-25T07:25:55;39.53;;;9.32;;
57025;SDS011;43961;52.940;6.834;2024-03-25T07:28:21;30.67;;;8.80;;
57025;SDS011;43961;52.940;6.834;2024-03-25T07:30:49;32.40;;;9.57;;
57025;SDS011;43961;52.940;6.834;2024-03-25T07:35:40;43.35;;;9.88;;
57025;SDS011;43961;52.940;6.834;2024-03-25T07:38:06;31.00;;;9.20;;
57025;SDS011;43961;52.940;6.834;2024-03-25T07:40:32;31.10;;;9.05;;
57025;SDS011;43961;52.940;6.834;2024-03-25T07:42:58;40.70;;;10.05;;
57025;SDS011;43961;52.940;6.834;2024-03-25T07:45:24;50.88;;;9.32;;
57025;SDS011;43961;52.940;6.834;2024-03-25T07:47:49;34.78;;;8.57;;
57025;SDS011;43961;52.940;6.834;2024-03-25T07:50:15;50.83;;;8.82;;
57025;SDS011;43961;52.940;6.834;2024-03-25T07:52:40;32.60;;;8.82;;
57025;SDS011;43961;52.940;6.834;2024-03-25T07:55:07;43.58;;;8.63;;
57025;SDS011;43961;52.940;6.834;2024-03-25T07:57:32;26.00;;;7.50;;
57025;SDS011;43961;52.940;6.834;2024-03-25T07:59:58;30.73;;;7.53;;
57025;SDS011;43961;52.940;6.834;2024-03-25T08:02:24;27.40;;;7.22;;
57025;SDS011;43961;52.940;6.834;2024-03-25T08:04:49;26.58;;;7.97;;
57025;SDS011;43961;52.940;6.834;2024-03-25T08:07:15;37.55;;;8.98;;
57025;SDS011;43961;52.940;6.834;2024-03-25T08:09:40;27.45;;;7.32;;
57025;SDS011;43961;52.940;6.834;2024-03-25T08:12:06;32.17;;;6.95;;
57025;SDS011;43961;52.940;6.834;2024-03-25T08:14:32;33.47;;;8.30;;
57025;SDS011;43961;52.940;6.834;2024-03-25T08:16:57;37.95;;;6.85;;
57025;SDS011;43961;52.940;6.834;2024-03-25T08:19:23;28.73;;;6.95;;
57025;SDS011;43961;52.940;6.834;2024-03-25T08:21:49;35.20;;;8.88;;
57025;SDS011;43961;52.940;6.834;2024-03-25T08:24:14;24.88;;;7.55;;
57025;SDS011;43961;52.940;6.834;2024-03-25T08:26:40;40.58;;;8.18;;
57025;SDS011;43961;52.940;6.834;2024-03-25T08:29:06;28.20;;;7.30;;
57025;SDS011;43961;52.940;6.834;2024-03-25T08:31:32;25.20;;;6.72;;
57025;SDS011;43961;52.940;6.834;2024-03-25T08:33:58;23.70;;;6.50;;
57025;SDS011;43961;52.940;6.834;2024-03-25T08:36:23;24.23;;;7.05;;
57025;SDS011;43961;52.940;6.834;2024-03-25T08:38:49;27.80;;;7.43;;
57025;SDS011;43961;52.940;6.834;2024-03-25T08:41:15;29.00;;;7.20;;
57025;SDS011;43961;52.940;6.834;2024-03-25T08:43:40;28.40;;;7.57;;
57025;SDS011;43961;52.940;6.834;2024-03-25T08:46:06;47.35;;;11.13;;
57025;SDS011;43961;52.940;6.834;2024-03-25T08:48:32;26.08;;;6.60;;
57025;SDS011;43961;52.940;6.834;2024-03-25T08:50:57;27.13;;;6.85;;
57025;SDS011;43961;52.940;6.834;2024-03-25T08:53:23;27.33;;;6.32;;
57025;SDS011;43961;52.940;6.834;2024-03-25T08:55:48;28.40;;;7.18;;
57025;SDS011;43961;52.940;6.834;2024-03-25T08:58:14;20.35;;;5.15;;
57025;SDS011;43961;52.940;6.834;2024-03-25T09:00:40;32.90;;;7.53;;
57025;SDS011;43961;52.940;6.834;2024-03-25T09:03:07;22.05;;;6.22;;
57025;SDS011;43961;52.940;6.834;2024-03-25T09:05:33;23.25;;;5.85;;
57025;SDS011;43961;52.940;6.834;2024-03-25T09:07:59;20.92;;;5.38;;
57025;SDS011;43961;52.940;6.834;2024-03-25T09:10:25;17.48;;;4.85;;
57025;SDS011;43961;52.940;6.834;2024-03-25T09:13:10;14.27;;;5.35;;
57025;SDS011;43961;52.940;6.834;2024-03-25T09:15:36;17.30;;;5.55;;
57025;SDS011;43961;52.940;6.834;2024-03-25T09:18:01;21.20;;;4.80;;
57025;SDS011;43961;52.940;6.834;2024-03-25T09:20:27;14.10;;;4.45;;
57025;SDS011;43961;52.940;6.834;2024-03-25T09:22:53;11.55;;;4.22;;
57025;SDS011;43961;52.940;6.834;2024-03-25T09:25:19;57.25;;;6.65;;
57025;SDS011;43961;52.940;6.834;2024-03-25T09:27:45;19.90;;;4.35;;
57025;SDS011;43961;52.940;6.834;2024-03-25T09:30:12;17.42;;;4.35;;
57025;SDS011;43961;52.940;6.834;2024-03-25T09:32:39;20.35;;;4.82;;
57025;SDS011;43961;52.940;6.834;2024-03-25T09:35:09;19.38;;;5.18;;
57025;SDS011;43961;52.940;6.834;2024-03-25T09:37:35;24.60;;;5.40;;
57025;SDS011;43961;52.940;6.834;2024-03-25T09:40:01;20.67;;;5.22;;
57025;SDS011;43961;52.940;6.834;2024-03-25T09:45:01;16.23;;;4.20;;
57025;SDS011;43961;52.940;6.834;2024-03-25T09:47:28;18.00;;;4.30;;
57025;SDS011;43961;52.940;6.834;2024-03-25T09:49:54;18.58;;;6.18;;
57025;SDS011;43961;52.940;6.834;2024-03-25T09:52:20;21.02;;;5.45;;
57025;SDS011;43961;52.940;6.834;2024-03-25T09:54:45;21.20;;;5.00;;
57025;SDS011;43961;52.940;6.834;2024-03-25T09:57:11;15.98;;;4.63;;
57025;SDS011;43961;52.940;6.834;2024-03-25T09:59:38;22.58;;;5.38;;
57025;SDS011;43961;52.940;6.834;2024-03-25T10:02:04;16.27;;;5.22;;
57025;SDS011;43961;52.940;6.834;2024-03-25T10:04:31;25.40;;;5.35;;
57025;SDS011;43961;52.940;6.834;2024-03-25T10:06:58;22.73;;;4.32;;
57025;SDS011;43961;52.940;6.834;2024-03-25T10:09:23;26.27;;;5.85;;
57025;SDS011;43961;52.940;6.834;2024-03-25T10:11:50;23.40;;;5.53;;
57025;SDS011;43961;52.940;6.834;2024-03-25T10:14:16;19.50;;;4.47;;
57025;SDS011;43961;52.940;6.834;2024-03-25T10:16:42;15.40;;;5.15;;
57025;SDS011;43961;52.940;6.834;2024-03-25T10:19:08;17.52;;;5.10;;
57025;SDS011;43961;52.940;6.834;2024-03-25T10:21:34;9.18;;;4.32;;
57025;SDS011;43961;52.940;6.834;2024-03-25T10:24:00;18.13;;;4.82;;
57025;SDS011;43961;52.940;6.834;2024-03-25T10:26:30;18.42;;;4.45;;
57025;SDS011;43961;52.940;6.834;2024-03-25T10:29:05;16.77;;;3.80;;
57025;SDS011;43961;52.940;6.834;2024-03-25T10:31:31;15.32;;;4.47;;
57025;SDS011;43961;52.940;6.834;2024-03-25T10:33:57;18.50;;;5.38;;
57025;SDS011;43961;52.940;6.834;2024-03-25T10:36:24;16.35;;;3.88;;
57025;SDS011;43961;52.940;6.834;2024-03-25T10:38:53;14.73;;;4.57;;
57025;SDS011;43961;52.940;6.834;2024-03-25T10:41:20;18.80;;;4.30;;
57025;SDS011;43961;52.940;6.834;2024-03-25T10:43:47;17.08;;;4.85;;
57025;SDS011;43961;52.940;6.834;2024-03-25T10:46:20;19.48;;;4.75;;
57025;SDS011;43961;52.940;6.834;2024-03-25T10:48:54;16.45;;;5.35;;
57025;SDS011;43961;52.940;6.834;2024-03-25T10:51:27;16.10;;;4.72;;
57025;SDS011;43961;52.940;6.834;2024-03-25T10:53:55;16.48;;;5.40;;
57025;SDS011;43961;52.940;6.834;2024-03-25T10:56:24;18.13;;;4.32;;
57025;SDS011;43961;52.940;6.834;2024-03-25T10:58:50;11.70;;;4.82;;
57025;SDS011;43961;52.940;6.834;2024-03-25T11:01:18;18.00;;;4.20;;
57025;SDS011;43961;52.940;6.834;2024-03-25T11:03:46;13.43;;;5.00;;
57025;SDS011;43961;52.940;6.834;2024-03-25T11:06:13;16.30;;;5.13;;
57025;SDS011;43961;52.940;6.834;2024-03-25T11:08:39;16.48;;;4.82;;
57025;SDS011;43961;52.940;6.834;2024-03-25T11:11:07;20.85;;;5.35;;
57025;SDS011;43961;52.940;6.834;2024-03-25T11:13:32;15.25;;;4.15;;
57025;SDS011;43961;52.940;6.834;2024-03-25T11:16:00;21.92;;;5.05;;
57025;SDS011;43961;52.940;6.834;2024-03-25T11:18:26;15.00;;;4.53;;
57025;SDS011;43961;52.940;6.834;2024-03-25T11:23:42;11.73;;;3.95;;
57025;SDS011;43961;52.940;6.834;2024-03-25T11:26:20;14.02;;;3.88;;
57025;SDS011;43961;52.940;6.834;2024-03-25T11:28:49;15.70;;;3.70;;
57025;SDS011;43961;52.940;6.834;2024-03-25T11:33:45;14.57;;;4.95;;
57025;SDS011;43961;52.940;6.834;2024-03-25T11:36:10;19.52;;;4.85;;
57025;SDS011;43961;52.940;6.834;2024-03-25T11:38:36;20.25;;;5.25;;
57025;SDS011;43961;52.940;6.834;2024-03-25T11:41:05;18.75;;;5.07;;
57025;SDS011;43961;52.940;6.834;2024-03-25T11:43:31;13.90;;;4.85;;
57025;SDS011;43961;52.940;6.834;2024-03-25T11:45:58;17.63;;;4.63;;
57025;SDS011;43961;52.940;6.834;2024-03-25T11:48:23;23.90;;;5.38;;
57025;SDS011;43961;52.940;6.834;2024-03-25T11:50:49;13.95;;;4.40;;
57025;SDS011;43961;52.940;6.834;2024-03-25T11:53:14;13.52;;;4.30;;
57025;SDS011;43961;52.940;6.834;2024-03-25T11:55:40;11.90;;;4.18;;
57025;SDS011;43961;52.940;6.834;2024-03-25T11:58:10;14.35;;;4.03;;
57025;SDS011;43961;52.940;6.834;2024-03-25T12:00:42;13.65;;;4.35;;
57025;SDS011;43961;52.940;6.834;2024-03-25T12:03:14;12.52;;;3.65;;
57025;SDS011;43961;52.940;6.834;2024-03-25T12:05:40;13.85;;;4.32;;
57025;SDS011;43961;52.940;6.834;2024-03-25T12:08:09;11.73;;;3.97;;
57025;SDS011;43961;52.940;6.834;2024-03-25T12:10:37;13.27;;;3.95;;
57025;SDS011;43961;52.940;6.834;2024-03-25T12:13:21;13.98;;;4.68;;
57025;SDS011;43961;52.940;6.834;2024-03-25T12:15:47;14.48;;;4.13;;
57025;SDS011;43961;52.940;6.834;2024-03-25T12:18:17;11.65;;;3.55;;
57025;SDS011;43961;52.940;6.834;2024-03-25T12:20:46;7.88;;;3.00;;
57025;SDS011;43961;52.940;6.834;2024-03-25T12:23:12;14.35;;;3.90;;
57025;SDS011;43961;52.940;6.834;2024-03-25T12:25:37;12.00;;;3.20;;
57025;SDS011;43961;52.940;6.834;2024-03-25T12:28:10;8.20;;;3.67;;
57025;SDS011;43961;52.940;6.834;2024-03-25T12:30:54;9.82;;;3.30;;
57025;SDS011;43961;52.940;6.834;2024-03-25T12:33:24;12.10;;;3.08;;
57025;SDS011;43961;52.940;6.834;2024-03-25T12:35:51;14.73;;;3.55;;
57025;SDS011;43961;52.940;6.834;2024-03-25T12:38:30;11.32;;;3.72;;
57025;SDS011;43961;52.940;6.834;2024-03-25T12:41:09;10.05;;;3.00;;
57025;SDS011;43961;52.940;6.834;2024-03-25T12:43:36;12.65;;;3.70;;
57025;SDS011;43961;52.940;6.834;2024-03-25T12:46:07;14.07;;;3.75;;
57025;SDS011;43961;52.940;6.834;2024-03-25T12:51:04;10.60;;;3.50;;
57025;SDS011;43961;52.940;6.834;2024-03-25T12:53:30;6.40;;;2.92;;
57025;SDS011;43961;52.940;6.834;2024-03-25T12:55:56;18.83;;;4.25;;
57025;SDS011;43961;52.940;6.834;2024-03-25T12:58:22;17.70;;;5.70;;
57025;SDS011;43961;52.940;6.834;2024-03-25T13:00:47;16.92;;;5.00;;
57025;SDS011;43961;52.940;6.834;2024-03-25T13:03:13;14.70;;;5.40;;
57025;SDS011;43961;52.940;6.834;2024-03-25T13:05:39;18.17;;;5.32;;
57025;SDS011;43961;52.940;6.834;2024-03-25T13:08:05;13.63;;;4.20;;
57025;SDS011;43961;52.940;6.834;2024-03-25T13:10:31;13.30;;;4.93;;
57025;SDS011;43961;52.940;6.834;2024-03-25T13:12:57;18.15;;;4.72;;
57025;SDS011;43961;52.940;6.834;2024-03-25T13:15:23;13.00;;;5.10;;
57025;SDS011;43961;52.940;6.834;2024-03-25T13:17:48;15.52;;;4.10;;
57025;SDS011;43961;52.940;6.834;2024-03-25T13:20:14;12.48;;;4.32;;
57025;SDS011;43961;52.940;6.834;2024-03-25T13:22:40;11.45;;;4.25;;
57025;SDS011;43961;52.940;6.834;2024-03-25T13:25:06;12.40;;;3.92;;
57025;SDS011;43961;52.940;6.834;2024-03-25T13:27:32;14.02;;;6.40;;
57025;SDS011;43961;52.940;6.834;2024-03-25T13:29:58;29.73;;;7.32;;
57025;SDS011;43961;52.940;6.834;2024-03-25T13:32:24;21.10;;;5.40;;
57025;SDS011;43961;52.940;6.834;2024-03-25T13:34:50;10.02;;;4.72;;
57025;SDS011;43961;52.940;6.834;2024-03-25T13:37:16;10.90;;;4.15;;
57025;SDS011;43961;52.940;6.834;2024-03-25T13:39:41;13.20;;;4.43;;
57025;SDS011;43961;52.940;6.834;2024-03-25T13:42:07;17.08;;;4.78;;
57025;SDS011;43961;52.940;6.834;2024-03-25T13:44:33;11.18;;;4.43;;
57025;SDS011;43961;52.940;6.834;2024-03-25T13:46:58;14.07;;;5.10;;
57025;SDS011;43961;52.940;6.834;2024-03-25T13:49:25;13.20;;;5.22;;
57025;SDS011;43961;52.940;6.834;2024-03-25T13:51:51;12.65;;;4.93;;
57025;SDS011;43961;52.940;6.834;2024-03-25T13:54:21;22.08;;;5.32;;
57025;SDS011;43961;52.940;6.834;2024-03-25T13:56:47;11.23;;;4.97;;
57025;SDS011;43961;52.940;6.834;2024-03-25T13:59:13;20.40;;;4.95;;
57025;SDS011;43961;52.940;6.834;2024-03-25T14:01:39;15.75;;;4.53;;
57025;SDS011;43961;52.940;6.834;2024-03-25T14:04:05;15.90;;;4.60;;
57025;SDS011;43961;52.940;6.834;2024-03-25T14:06:31;17.60;;;4.85;;
57025;SDS011;43961;52.940;6.834;2024-03-25T14:08:58;14.77;;;4.53;;
57025;SDS011;43961;52.940;6.834;2024-03-25T14:11:29;15.90;;;4.80;;
57025;SDS011;43961;52.940;6.834;2024-03-25T14:13:55;21.40;;;5.32;;
57025;SDS011;43961;52.940;6.834;2024-03-25T14:16:21;22.75;;;5.20;;
57025;SDS011;43961;52.940;6.834;2024-03-25T14:18:46;25.35;;;8.10;;
57025;SDS011;43961;52.940;6.834;2024-03-25T14:21:12;12.73;;;5.53;;
57025;SDS011;43961;52.940;6.834;2024-03-25T14:23:38;11.10;;;5.25;;
57025;SDS011;43961;52.940;6.834;2024-03-25T14:26:08;18.30;;;4.88;;
57025;SDS011;43961;52.940;6.834;2024-03-25T14:28:42;28.05;;;6.07;;
57025;SDS011;43961;52.940;6.834;2024-03-25T14:31:08;23.58;;;5.28;;
57025;SDS011;43961;52.940;6.834;2024-03-25T14:33:34;18.05;;;4.80;;
57025;SDS011;43961;52.940;6.834;2024-03-25T14:36:00;16.13;;;5.40;;
57025;SDS011;43961;52.940;6.834;2024-03-25T14:38:26;11.30;;;4.65;;
57025;SDS011;43961;52.940;6.834;2024-03-25T14:40:51;16.63;;;5.75;;
57025;SDS011;43961;52.940;6.834;2024-03-25T14:43:18;24.92;;;5.75;;